Time;durP1;ratioP1;P1;durP2;ratioP2;P2;SDS_P1;SDS_P2;PMS_P1;PMS_P2;Temp;Humidity;BMP_temperature;BMP_pressure;BME280_temperature;BME280_humidity;BME280_pressure;Samples;Min_cycle;Max_cycle;Signal;HPM_P1;HPM_P2
2023/05/17 00:02:07;;;;;;;3.17;1.40;;;6.90;99.90;;;;;;5065103;28;20053;-73
2023/05/17 00:04:33;;;;;;;4.70;1.50;;;6.90;99.90;;;;;;5069922;28;20035;-70
2023/05/17 00:06:59;;;;;;;6.43;1.40;;;6.90;99.90;;;;;;5068989;28;20083;-70
2023/05/17 00:09:24;;;;;;;7.75;1.40;;;6.90;99.90;;;;;;5069706;28;20800;-69
2023/05/17 00:11:50;;;;;;;5.82;1.45;;;6.90;99.90;;;;;;5067391;28;20036;-69
2023/05/17 00:14:16;;;;;;;7.30;1.90;;;6.90;99.90;;;;;;5053719;28;20086;-70
2023/05/17 00:16:41;;;;;;;4.03;1.33;;;6.90;99.90;;;;;;5068426;28;20032;-70
2023/05/17 00:19:08;;;;;;;3.58;1.27;;;6.90;99.90;;;;;;5070262;28;20047;-73
2023/05/17 00:21:34;;;;;;;6.20;1.60;;;6.80;99.90;;;;;;5069887;28;20024;-69
2023/05/17 00:24:00;;;;;;;5.05;1.50;;;6.80;99.90;;;;;;5062831;28;20032;-70
2023/05/17 00:26:25;;;;;;;4.85;1.50;;;6.70;99.90;;;;;;5069330;28;20035;-70
2023/05/17 00:28:51;;;;;;;4.10;1.60;;;6.70;99.90;;;;;;5070067;28;20696;-70
2023/05/17 00:31:17;;;;;;;8.18;1.80;;;6.60;99.90;;;;;;5061343;28;20059;-70
2023/05/17 00:33:42;;;;;;;3.92;1.48;;;6.60;99.90;;;;;;5048258;28;20065;-70
2023/05/17 00:36:08;;;;;;;3.40;1.27;;;6.60;99.90;;;;;;5050220;28;20376;-72
2023/05/17 00:38:34;;;;;;;5.57;1.60;;;6.50;99.90;;;;;;5049745;28;20036;-69
2023/05/17 00:40:59;;;;;;;3.90;1.55;;;6.50;99.90;;;;;;5048896;28;20104;-69
2023/05/17 00:43:25;;;;;;;6.30;1.50;;;6.50;99.90;;;;;;5062095;28;20169;-69
2023/05/17 00:45:51;;;;;;;6.72;2.17;;;6.50;99.90;;;;;;5067757;28;20040;-70
2023/05/17 00:48:19;;;;;;;7.70;1.60;;;6.40;99.90;;;;;;5059407;28;20041;-70
2023/05/17 00:50:46;;;;;;;6.40;2.33;;;6.30;99.90;;;;;;5049868;28;20854;-69
2023/05/17 00:53:15;;;;;;;5.47;1.58;;;6.30;99.90;;;;;;5059503;28;20078;-73
2023/05/17 00:55:44;;;;;;;4.90;1.80;;;6.30;99.90;;;;;;5068342;28;20036;-70
2023/05/17 00:58:11;;;;;;;6.43;1.55;;;6.30;99.90;;;;;;5068742;28;20056;-73
2023/05/17 01:00:37;;;;;;;4.38;1.70;;;6.30;99.90;;;;;;5067690;28;20323;-70
2023/05/17 01:03:03;;;;;;;2.97;1.55;;;6.40;99.90;;;;;;5062936;28;20052;-69
2023/05/17 01:05:29;;;;;;;3.70;1.67;;;6.40;99.90;;;;;;5068320;28;20090;-70
2023/05/17 01:07:55;;;;;;;6.32;1.80;;;6.40;99.90;;;;;;5068427;28;20029;-70
2023/05/17 01:10:27;;;;;;;6.18;1.67;;;6.40;99.90;;;;;;5068335;28;20551;-70
2023/05/17 01:13:16;;;;;;;4.10;1.50;;;6.30;99.90;;;;;;5068247;28;20500;-69
2023/05/17 01:15:48;;;;;;;6.88;1.65;;;6.40;99.90;;;;;;5069042;28;20113;-70
2023/05/17 01:18:33;;;;;;;5.55;1.50;;;6.40;99.90;;;;;;5068172;28;20021;-70
2023/05/17 01:21:00;;;;;;;6.40;2.03;;;6.40;99.90;;;;;;5067878;28;20472;-70
2023/05/17 01:23:43;;;;;;;5.85;1.70;;;6.30;99.90;;;;;;5066087;28;20497;-70
2023/05/17 01:26:27;;;;;;;4.43;1.58;;;6.20;99.90;;;;;;5068988;28;20032;-70
2023/05/17 01:28:53;;;;;;;4.78;1.63;;;6.10;99.90;;;;;;5067482;28;20082;-69
2023/05/17 01:31:19;;;;;;;4.97;1.63;;;6.00;99.90;;;;;;5059899;28;20093;-70
2023/05/17 01:33:45;;;;;;;7.93;2.25;;;6.00;99.90;;;;;;5060058;28;20040;-73
2023/05/17 01:36:11;;;;;;;4.07;1.58;;;6.10;99.90;;;;;;5048566;28;20041;-73
2023/05/17 01:38:37;;;;;;;4.43;1.92;;;6.10;99.90;;;;;;5060778;28;20193;-70
2023/05/17 01:41:42;;;;;;;9.80;2.00;;;6.20;99.90;;;;;;5067299;28;20357;-70
2023/05/17 01:44:52;;;;;;;7.30;2.03;;;6.20;99.90;;;;;;5020912;28;20071;-70
2023/05/17 01:47:34;;;;;;;6.68;1.52;;;6.20;99.90;;;;;;5013865;28;20099;-71
2023/05/17 01:50:02;;;;;;;3.88;1.55;;;6.20;99.90;;;;;;5009053;28;20045;-72
2023/05/17 01:52:52;;;;;;;4.93;1.60;;;6.20;99.90;;;;;;5022478;28;20157;-70
2023/05/17 01:55:42;;;;;;;2.88;1.42;;;6.10;99.90;;;;;;5025041;28;20234;-70
2023/05/17 01:58:11;;;;;;;5.27;1.63;;;6.00;99.90;;;;;;5008145;28;20034;-69
2023/05/17 02:00:38;;;;;;;6.93;1.63;;;5.90;99.90;;;;;;5020893;28;20044;-71
2023/05/17 02:03:05;;;;;;;5.55;1.83;;;5.80;99.90;;;;;;5014974;28;20180;-70
2023/05/17 02:05:31;;;;;;;6.00;1.77;;;5.80;99.90;;;;;;5020848;28;20947;-70
2023/05/17 02:07:57;;;;;;;6.88;1.98;;;5.80;99.90;;;;;;5025665;28;20042;-70
2023/05/17 02:10:23;;;;;;;6.57;2.35;;;5.70;99.90;;;;;;5024907;28;20033;-70
2023/05/17 02:12:48;;;;;;;6.13;2.05;;;5.70;99.90;;;;;;4994041;28;20026;-71
2023/05/17 02:15:15;;;;;;;5.22;1.88;;;5.70;99.90;;;;;;5044874;28;20043;-73
2023/05/17 02:17:41;;;;;;;5.10;1.80;;;5.60;99.90;;;;;;5068207;28;20050;-71
2023/05/17 02:20:07;;;;;;;3.10;1.50;;;5.60;99.90;;;;;;5061975;28;20495;-71
2023/05/17 02:22:34;;;;;;;5.72;1.85;;;5.50;99.90;;;;;;5060278;28;20033;-73
2023/05/17 02:24:59;;;;;;;5.18;2.00;;;5.50;99.90;;;;;;5049511;28;20095;-69
2023/05/17 02:27:25;;;;;;;9.15;2.17;;;5.50;99.90;;;;;;5047294;28;20444;-70
2023/05/17 02:29:51;;;;;;;8.30;2.08;;;5.50;99.90;;;;;;5048046;28;20037;-71
2023/05/17 02:32:16;;;;;;;5.90;1.80;;;5.50;99.90;;;;;;5048109;28;20065;-72
2023/05/17 02:34:42;;;;;;;4.05;1.70;;;5.50;99.90;;;;;;5047854;28;20029;-69
2023/05/17 02:37:07;;;;;;;6.78;1.90;;;5.40;99.90;;;;;;5052698;28;20600;-69
2023/05/17 02:39:33;;;;;;;3.38;1.60;;;5.40;99.90;;;;;;5065523;28;20041;-70
2023/05/17 02:41:59;;;;;;;5.78;2.00;;;5.30;99.90;;;;;;5065655;28;20036;-70
2023/05/17 02:44:24;;;;;;;4.50;1.60;;;5.30;99.90;;;;;;5064316;28;20107;-69
2023/05/17 02:46:50;;;;;;;5.43;1.73;;;5.20;99.90;;;;;;5068045;28;20028;-69
2023/05/17 02:49:15;;;;;;;4.07;1.58;;;5.10;99.90;;;;;;5062972;28;20047;-73
2023/05/17 02:51:41;;;;;;;4.75;1.77;;;5.10;99.90;;;;;;5064270;28;20051;-70
2023/05/17 02:54:07;;;;;;;3.05;1.58;;;5.00;99.90;;;;;;5060501;28;20041;-70
2023/05/17 02:56:32;;;;;;;6.00;1.80;;;4.90;99.90;;;;;;5047420;28;20454;-69
2023/05/17 02:59:00;;;;;;;7.68;1.75;;;4.90;99.90;;;;;;5047994;28;20025;-70
2023/05/17 03:01:26;;;;;;;7.68;1.85;;;4.80;99.90;;;;;;5058541;28;20048;-70
2023/05/17 03:03:52;;;;;;;5.28;1.85;;;4.80;99.90;;;;;;5065238;28;20118;-68
2023/05/17 03:06:17;;;;;;;4.65;1.58;;;4.70;99.90;;;;;;5069318;28;20032;-71
2023/05/17 03:08:43;;;;;;;4.63;2.03;;;4.70;99.90;;;;;;5071445;28;20025;-67
2023/05/17 03:11:09;;;;;;;3.95;1.70;;;4.60;99.90;;;;;;5071258;28;20100;-68
2023/05/17 03:13:34;;;;;;;3.70;1.60;;;4.50;99.90;;;;;;5069734;28;20029;-68
2023/05/17 03:16:00;;;;;;;4.90;2.30;;;4.50;99.90;;;;;;5068282;28;20032;-67
2023/05/17 03:18:26;;;;;;;11.27;2.63;;;4.50;99.90;;;;;;5067505;28;20081;-68
2023/05/17 03:20:51;;;;;;;5.95;1.85;;;4.50;99.90;;;;;;5071225;28;20671;-68
2023/05/17 03:23:17;;;;;;;6.88;1.90;;;4.50;99.90;;;;;;5071005;28;20067;-72
2023/05/17 03:25:42;;;;;;;2.90;1.90;;;4.50;99.90;;;;;;5068284;28;20036;-68
2023/05/17 03:28:08;;;;;;;6.68;1.88;;;4.50;99.90;;;;;;5071040;28;20021;-69
2023/05/17 03:30:34;;;;;;;6.70;2.53;;;4.40;99.90;;;;;;5067174;28;20036;-66
2023/05/17 03:32:59;;;;;;;5.78;2.05;;;4.30;99.90;;;;;;5051039;28;20075;-67
2023/05/17 03:35:25;;;;;;;7.90;2.45;;;4.30;99.90;;;;;;5058820;28;20039;-67
2023/05/17 03:37:51;;;;;;;3.50;1.83;;;4.30;99.90;;;;;;5070762;28;20032;-68
2023/05/17 03:40:16;;;;;;;8.35;1.92;;;4.40;99.90;;;;;;5070897;28;20041;-69
2023/05/17 03:42:42;;;;;;;5.13;2.28;;;4.40;99.90;;;;;;5069992;28;20040;-68
2023/05/17 03:45:08;;;;;;;6.28;2.50;;;4.30;99.90;;;;;;5068661;28;20432;-68
2023/05/17 03:47:33;;;;;;;6.88;2.97;;;4.20;99.90;;;;;;5069909;28;20031;-68
2023/05/17 03:49:59;;;;;;;5.05;2.90;;;4.20;99.90;;;;;;5068441;28;20109;-68
2023/05/17 03:52:25;;;;;;;5.78;2.15;;;4.30;99.90;;;;;;5067870;28;20578;-67
2023/05/17 03:54:50;;;;;;;4.93;1.85;;;4.20;99.90;;;;;;5070641;28;20131;-69
2023/05/17 03:57:16;;;;;;;5.07;1.65;;;4.20;99.90;;;;;;5070844;28;20029;-68
2023/05/17 03:59:42;;;;;;;4.60;2.10;;;4.10;99.90;;;;;;5069420;28;20940;-69
2023/05/17 04:02:07;;;;;;;6.38;2.00;;;4.20;99.90;;;;;;5055845;28;20112;-68
2023/05/17 04:04:33;;;;;;;4.70;2.20;;;4.10;99.90;;;;;;5067043;28;20036;-68
2023/05/17 04:06:59;;;;;;;4.60;1.65;;;4.10;99.90;;;;;;5070087;28;20048;-68
2023/05/17 04:09:24;;;;;;;4.25;2.20;;;4.20;99.90;;;;;;5069465;28;20024;-68
2023/05/17 04:11:50;;;;;;;6.72;2.45;;;4.20;99.90;;;;;;5070254;28;20028;-68
2023/05/17 04:14:17;;;;;;;8.15;1.90;;;4.20;99.90;;;;;;5069017;28;20044;-69
2023/05/17 04:16:43;;;;;;;4.18;1.98;;;4.20;99.90;;;;;;5069123;28;20810;-68
2023/05/17 04:19:08;;;;;;;3.78;2.00;;;4.30;99.90;;;;;;5068709;28;20025;-68
2023/05/17 04:21:34;;;;;;;4.53;2.10;;;4.40;99.90;;;;;;5067570;28;20115;-68
2023/05/17 04:24:00;;;;;;;4.20;1.85;;;4.40;99.90;;;;;;5069924;28;20379;-68
2023/05/17 04:26:26;;;;;;;3.90;1.75;;;4.40;99.90;;;;;;5067868;28;20056;-68
2023/05/17 04:28:51;;;;;;;5.18;2.08;;;4.40;99.90;;;;;;5069932;28;20475;-68
2023/05/17 04:31:17;;;;;;;4.25;2.13;;;4.40;99.90;;;;;;5065754;28;20157;-68
2023/05/17 04:33:43;;;;;;;5.30;2.22;;;4.40;99.90;;;;;;5067560;28;20063;-68
2023/05/17 04:36:08;;;;;;;4.20;1.70;;;4.40;99.90;;;;;;5069420;28;20040;-68
2023/05/17 04:38:34;;;;;;;4.57;1.85;;;4.50;99.90;;;;;;5068989;28;20101;-68
2023/05/17 04:41:03;;;;;;;5.43;2.35;;;4.40;99.90;;;;;;5069631;28;20032;-68
2023/05/17 04:43:29;;;;;;;4.93;2.75;;;4.40;99.90;;;;;;5055100;28;20033;-68
2023/05/17 04:45:56;;;;;;;5.60;3.15;;;4.50;99.90;;;;;;5067757;28;20032;-68
2023/05/17 04:48:22;;;;;;;4.68;2.80;;;4.60;99.90;;;;;;5069132;28;20399;-72
2023/05/17 04:50:48;;;;;;;5.15;2.17;;;4.70;99.90;;;;;;5067582;28;20025;-68
2023/05/17 04:53:14;;;;;;;7.45;2.00;;;4.80;99.90;;;;;;5067720;28;20365;-68
2023/05/17 04:55:40;;;;;;;5.60;1.75;;;5.00;99.90;;;;;;5063689;28;20365;-69
2023/05/17 04:58:06;;;;;;;5.88;1.55;;;5.20;99.90;;;;;;5049332;28;20032;-70
2023/05/17 05:00:31;;;;;;;12.82;5.30;;;5.50;99.90;;;;;;5049293;28;20484;-69
2023/05/17 05:02:57;;;;;;;7.07;2.70;;;5.60;99.90;;;;;;5069170;28;20526;-69
2023/05/17 05:05:24;;;;;;;6.50;1.92;;;5.60;99.90;;;;;;5065563;28;20447;-72
2023/05/17 05:07:50;;;;;;;6.22;2.47;;;5.80;99.90;;;;;;5066052;28;20025;-68
2023/05/17 05:10:15;;;;;;;8.77;3.20;;;5.70;99.90;;;;;;5065589;28;20441;-69
2023/05/17 05:12:41;;;;;;;10.35;3.90;;;5.70;99.90;;;;;;5068339;28;20035;-69
2023/05/17 05:15:08;;;;;;;7.18;3.15;;;5.80;99.90;;;;;;5068998;28;20419;-69
2023/05/17 05:17:33;;;;;;;12.88;2.58;;;6.00;99.90;;;;;;5066302;28;20392;-68
2023/05/17 05:19:59;;;;;;;15.10;1.73;;;6.10;99.90;;;;;;5066833;28;20037;-68
2023/05/17 05:22:25;;;;;;;9.98;2.15;;;6.20;99.90;;;;;;5068356;28;20035;-73
2023/05/17 05:24:51;;;;;;;9.15;2.45;;;6.50;99.90;;;;;;5068572;28;20109;-70
2023/05/17 05:27:16;;;;;;;7.22;3.00;;;6.80;99.90;;;;;;5066846;28;20040;-70
2023/05/17 05:29:42;;;;;;;11.07;4.32;;;7.00;99.90;;;;;;5064759;28;20479;-69
2023/05/17 05:32:08;;;;;;;9.60;2.78;;;7.10;99.90;;;;;;5050973;28;20388;-68
2023/05/17 05:34:33;;;;;;;7.82;2.70;;;7.20;99.90;;;;;;5047992;28;20031;-68
2023/05/17 05:36:59;;;;;;;7.65;2.42;;;7.20;99.90;;;;;;5048827;28;20385;-69
2023/05/17 05:39:26;;;;;;;4.40;2.05;;;7.30;99.90;;;;;;5048579;28;20032;-72
2023/05/17 05:41:52;;;;;;;4.22;2.08;;;7.10;99.90;;;;;;5059612;28;20483;-69
2023/05/17 05:44:18;;;;;;;5.55;2.10;;;7.10;99.90;;;;;;5068593;28;20127;-69
2023/05/17 05:46:43;;;;;;;6.00;2.22;;;7.00;99.90;;;;;;5067883;28;20028;-68
2023/05/17 05:49:09;;;;;;;5.40;2.10;;;7.00;99.90;;;;;;5068601;28;20350;-68
2023/05/17 05:51:35;;;;;;;6.05;2.17;;;7.20;99.90;;;;;;5066398;28;20024;-68
2023/05/17 05:54:01;;;;;;;9.20;2.33;;;7.30;99.90;;;;;;5068548;28;20595;-69
2023/05/17 05:56:26;;;;;;;8.90;2.00;;;7.30;99.90;;;;;;5066872;28;20056;-72
2023/05/17 05:58:54;;;;;;;29.15;18.80;;;7.50;99.90;;;;;;5066755;28;20392;-68
2023/05/17 06:01:20;;;;;;;9.43;2.70;;;7.60;99.90;;;;;;5067611;28;20070;-68
2023/05/17 06:03:45;;;;;;;5.70;2.58;;;7.80;99.90;;;;;;5066427;28;20266;-68
2023/05/17 06:06:11;;;;;;;6.88;2.70;;;7.90;99.90;;;;;;5068140;28;20037;-69
2023/05/17 06:08:36;;;;;;;8.60;3.08;;;8.20;99.90;;;;;;5067737;28;20033;-69
2023/05/17 06:11:02;;;;;;;9.98;2.78;;;8.40;99.90;;;;;;5066676;28;20051;-69
2023/05/17 06:13:28;;;;;;;66.20;31.13;;;8.60;99.90;;;;;;5068010;28;20572;-72
2023/05/17 06:15:54;;;;;;;9.13;4.47;;;8.90;99.90;;;;;;5067896;28;20029;-68
2023/05/17 06:18:20;;;;;;;8.73;2.90;;;9.00;99.90;;;;;;5068299;28;20031;-68
2023/05/17 06:20:45;;;;;;;9.63;2.63;;;9.00;99.90;;;;;;5066753;28;20024;-68
2023/05/17 06:23:11;;;;;;;11.40;3.95;;;9.20;99.90;;;;;;5068293;28;20476;-69
2023/05/17 06:25:37;;;;;;;9.50;3.10;;;9.40;99.90;;;;;;5067422;28;20491;-69
2023/05/17 06:28:03;;;;;;;11.48;2.80;;;9.50;99.90;;;;;;5067990;28;20427;-68
2023/05/17 06:30:29;;;;;;;14.75;2.88;;;9.60;99.90;;;;;;5067114;28;20029;-71
2023/05/17 06:32:55;;;;;;;14.50;5.22;;;9.80;99.90;;;;;;5066921;28;20028;-67
2023/05/17 06:35:20;;;;;;;11.98;2.97;;;9.90;99.90;;;;;;5066752;28;20824;-68
2023/05/17 06:37:46;;;;;;;14.55;3.50;;;10.00;99.90;;;;;;5067343;28;20809;-69
2023/05/17 06:40:12;;;;;;;14.45;3.65;;;9.90;99.90;;;;;;5071132;28;20028;-68
2023/05/17 06:42:37;;;;;;;14.43;4.93;;;10.10;99.90;;;;;;5060933;28;20033;-68
2023/05/17 06:45:03;;;;;;;13.50;4.70;;;10.30;99.90;;;;;;5069302;28;20111;-68
2023/05/17 06:47:29;;;;;;;9.63;3.72;;;10.50;99.90;;;;;;5071596;28;20029;-70
2023/05/17 06:49:54;;;;;;;9.40;2.97;;;10.60;99.90;;;;;;5071659;28;20028;-66
2023/05/17 06:52:21;;;;;;;10.45;2.80;;;10.60;99.90;;;;;;5071758;28;20672;-68
2023/05/17 06:54:46;;;;;;;11.20;2.90;;;10.60;99.90;;;;;;5055053;28;20502;-68
2023/05/17 06:57:12;;;;;;;10.40;3.00;;;10.80;99.90;;;;;;5050229;28;20021;-68
2023/05/17 06:59:38;;;;;;;14.65;3.17;;;10.90;99.90;;;;;;5050783;28;20032;-67
2023/05/17 07:02:03;;;;;;;13.20;3.42;;;11.00;99.90;;;;;;5065349;28;20482;-68
2023/05/17 07:04:30;;;;;;;24.27;9.18;;;11.00;99.90;;;;;;5069220;28;20527;-71
2023/05/17 07:06:56;;;;;;;9.23;3.35;;;11.20;99.90;;;;;;5071390;28;20060;-68
2023/05/17 07:09:21;;;;;;;10.95;3.88;;;11.30;99.90;;;;;;5071517;28;20056;-69
2023/05/17 07:11:47;;;;;;;16.02;4.22;;;11.50;99.90;;;;;;5070648;28;20032;-68
2023/05/17 07:14:13;;;;;;;8.80;2.85;;;11.70;99.90;;;;;;5068454;28;20024;-68
2023/05/17 07:16:39;;;;;;;12.88;3.53;;;11.90;99.90;;;;;;5070499;28;20025;-68
2023/05/17 07:19:05;;;;;;;10.13;3.05;;;12.00;99.90;;;;;;5068968;28;20461;-68
2023/05/17 07:21:31;;;;;;;13.70;3.60;;;11.70;99.90;;;;;;5071146;28;20059;-71
2023/05/17 07:23:57;;;;;;;9.60;2.92;;;11.80;99.90;;;;;;5070761;28;20067;-68
2023/05/17 07:26:23;;;;;;;6.43;3.17;;;11.80;99.90;;;;;;5071009;28;20469;-68
2023/05/17 07:28:48;;;;;;;11.52;3.40;;;11.80;99.90;;;;;;5069373;28;20111;-68
2023/05/17 07:31:14;;;;;;;7.25;3.00;;;11.50;99.90;;;;;;5062379;28;20051;-68
2023/05/17 07:33:41;;;;;;;9.82;3.33;;;11.30;99.90;;;;;;5050145;28;20060;-67
2023/05/17 07:36:07;;;;;;;8.45;2.72;;;11.30;99.90;;;;;;5050780;28;20524;-69
2023/05/17 07:38:36;;;;;;;8.93;3.22;;;11.40;99.90;;;;;;5056767;28;20107;-70
2023/05/17 07:41:08;;;;;;;8.40;3.30;;;11.60;99.90;;;;;;5070821;28;20028;-68
2023/05/17 07:43:37;;;;;;;8.43;2.97;;;11.90;99.90;;;;;;5068834;28;20051;-70
2023/05/17 07:46:03;;;;;;;6.32;3.00;;;11.90;99.90;;;;;;5070576;28;20029;-68
2023/05/17 07:48:29;;;;;;;11.93;3.10;;;12.10;99.90;;;;;;5070802;28;20036;-67
2023/05/17 07:50:55;;;;;;;9.52;2.92;;;12.30;99.90;;;;;;5069503;28;20025;-68
2023/05/17 07:53:20;;;;;;;14.05;3.30;;;12.30;99.90;;;;;;5068946;28;20094;-68
2023/05/17 07:55:46;;;;;;;16.13;5.22;;;12.40;99.90;;;;;;5069924;28;20111;-68
2023/05/17 07:58:12;;;;;;;8.65;3.22;;;12.50;99.90;;;;;;5069093;28;20029;-68
2023/05/17 08:00:38;;;;;;;11.63;3.83;;;12.60;99.90;;;;;;5067980;28;20040;-68
2023/05/17 08:03:03;;;;;;;8.85;3.28;;;12.70;99.90;;;;;;5052313;28;20045;-69
2023/05/17 08:05:29;;;;;;;12.77;3.45;;;12.70;99.90;;;;;;5070371;28;20492;-68
2023/05/17 08:07:58;;;;;;;9.05;2.95;;;12.60;99.90;;;;;;5069655;28;20017;-67
2023/05/17 08:10:23;;;;;;;6.93;2.90;;;12.50;99.90;;;;;;5068565;28;20028;-67
2023/05/17 08:12:49;;;;;;;8.95;3.03;;;12.60;99.90;;;;;;5067357;28;20435;-68
2023/05/17 08:15:16;;;;;;;9.23;3.42;;;12.70;99.90;;;;;;5066534;28;20035;-67
2023/05/17 08:17:42;;;;;;;7.82;3.13;;;12.70;99.90;;;;;;5067151;28;20032;-68
2023/05/17 08:20:08;;;;;;;13.98;3.47;;;12.80;99.90;;;;;;5070121;28;20032;-68
2023/05/17 08:22:33;;;;;;;7.97;3.00;;;12.90;99.90;;;;;;5068048;28;20373;-71
2023/05/17 08:24:59;;;;;;;8.40;3.15;;;12.70;99.90;;;;;;5069317;28;20041;-68
2023/05/17 08:27:25;;;;;;;10.40;3.45;;;12.80;99.90;;;;;;5069924;28;20032;-67
2023/05/17 08:29:53;;;;;;;7.38;3.08;;;12.90;99.90;;;;;;5058978;28;20115;-69
2023/05/17 08:32:19;;;;;;;9.98;3.22;;;12.90;99.90;;;;;;5053832;28;20036;-68
2023/05/17 08:34:46;;;;;;;8.27;3.33;;;12.90;99.90;;;;;;5060680;28;20036;-68
2023/05/17 08:37:11;;;;;;;9.88;3.60;;;12.80;99.90;;;;;;5069842;28;20058;-68
2023/05/17 08:39:37;;;;;;;8.55;3.58;;;13.00;99.90;;;;;;5069164;28;20564;-70
2023/05/17 08:42:06;;;;;;;9.50;3.80;;;13.10;99.90;;;;;;5069364;28;20030;-68
2023/05/17 08:44:32;;;;;;;10.25;3.33;;;12.70;99.90;;;;;;5067305;28;20043;-68
2023/05/17 08:46:59;;;;;;;10.18;3.42;;;12.80;99.90;;;;;;5068822;28;20107;-68
2023/05/17 08:49:29;;;;;;;13.32;3.17;;;13.10;99.90;;;;;;5069437;28;20076;-67
2023/05/17 08:51:58;;;;;;;9.93;3.17;;;13.40;99.90;;;;;;5068777;28;20479;-68
2023/05/17 08:54:23;;;;;;;12.35;3.80;;;13.60;99.90;;;;;;5068442;28;20036;-67
2023/05/17 08:56:57;;;;;;;11.98;3.38;;;13.70;99.90;;;;;;5068591;28;20029;-69
2023/05/17 08:59:25;;;;;;;9.25;3.60;;;14.00;99.90;;;;;;5069281;28;20421;-68
2023/05/17 09:01:53;;;;;;;14.80;3.35;;;13.80;99.90;;;;;;5055200;28;20069;-69
2023/05/17 09:04:19;;;;;;;9.23;3.20;;;13.90;99.90;;;;;;5056641;28;20024;-68
2023/05/17 09:06:45;;;;;;;10.05;3.13;;;13.80;99.90;;;;;;5068469;28;20032;-68
2023/05/17 09:09:10;;;;;;;12.95;2.88;;;14.00;99.90;;;;;;5069135;28;20090;-70
2023/05/17 09:11:37;;;;;;;8.40;3.08;;;14.20;99.90;;;;;;5066761;28;20608;-71
2023/05/17 09:14:04;;;;;;;13.65;3.40;;;14.40;99.90;;;;;;5068431;28;20037;-69
2023/05/17 09:16:35;;;;;;;10.95;3.53;;;14.50;99.90;;;;;;5069052;28;20093;-68
2023/05/17 09:19:02;;;;;;;9.30;3.70;;;14.60;99.90;;;;;;5068438;28;20048;-69
2023/05/17 09:21:32;;;;;;;9.40;3.40;;;14.50;99.90;;;;;;5069072;28;20078;-68
2023/05/17 09:24:00;;;;;;;11.00;3.05;;;14.60;99.90;;;;;;5067187;28;20067;-68
2023/05/17 09:26:46;;;;;;;9.05;3.22;;;14.50;99.90;;;;;;5068861;28;20050;-69
2023/05/17 09:29:13;;;;;;;7.60;3.17;;;14.10;99.90;;;;;;5068381;28;20373;-69
2023/05/17 09:31:40;;;;;;;9.30;2.58;;;14.00;99.90;;;;;;5058093;28;20024;-72
2023/05/17 09:34:06;;;;;;;7.40;3.15;;;13.80;99.90;;;;;;5066659;28;20038;-69
2023/05/17 09:36:35;;;;;;;6.30;2.80;;;13.80;99.90;;;;;;5069088;28;20357;-68
2023/05/17 09:39:04;;;;;;;8.98;3.30;;;13.80;99.90;;;;;;5067951;28;20514;-69
2023/05/17 09:41:45;;;;;;;8.13;3.22;;;13.80;99.90;;;;;;5068667;28;20107;-67
2023/05/17 09:44:12;;;;;;;14.05;4.13;;;13.90;99.90;;;;;;5060347;28;20032;-69
2023/05/17 09:46:44;;;;;;;9.55;3.33;;;14.20;99.90;;;;;;5068512;28;20389;-68
2023/05/17 09:49:11;;;;;;;9.75;2.78;;;14.30;99.90;;;;;;5068409;28;20411;-68
2023/05/17 09:51:42;;;;;;;11.43;3.83;;;14.30;99.90;;;;;;5068595;28;20047;-69
2023/05/17 09:54:09;;;;;;;10.50;3.30;;;14.60;99.90;;;;;;5067275;28;20028;-68
2023/05/17 09:56:35;;;;;;;12.60;3.53;;;14.90;99.90;;;;;;5068648;28;20028;-68
2023/05/17 09:59:03;;;;;;;9.77;3.22;;;15.10;99.90;;;;;;5066432;28;20036;-70
2023/05/17 10:01:30;;;;;;;9.65;2.95;;;15.10;99.90;;;;;;5066985;28;20068;-68
2023/05/17 10:04:03;;;;;;;10.88;3.78;;;14.90;99.90;;;;;;5067712;28;20043;-69
2023/05/17 10:06:30;;;;;;;8.68;3.50;;;14.90;99.90;;;;;;5066401;28;20082;-68
2023/05/17 10:08:57;;;;;;;8.38;3.30;;;15.10;99.90;;;;;;5067567;28;20060;-68
2023/05/17 10:11:32;;;;;;;9.05;3.28;;;15.20;99.90;;;;;;5068441;28;20107;-68
2023/05/17 10:14:13;;;;;;;9.32;3.47;;;15.00;99.90;;;;;;5070582;28;20112;-68
2023/05/17 10:16:40;;;;;;;6.20;2.97;;;14.70;99.90;;;;;;5071464;28;20025;-68
2023/05/17 10:19:06;;;;;;;7.82;3.08;;;14.80;99.90;;;;;;5071862;28;20123;-68
2023/05/17 10:21:33;;;;;;;10.18;3.42;;;14.60;99.90;;;;;;5071032;28;20362;-69
2023/05/17 10:24:01;;;;;;;9.43;3.53;;;14.60;99.90;;;;;;5070064;28;20378;-68
2023/05/17 10:26:27;;;;;;;8.77;3.22;;;14.90;99.90;;;;;;5069866;28;20033;-69
2023/05/17 10:28:59;;;;;;;9.23;3.33;;;14.60;99.90;;;;;;5071473;28;20032;-68
2023/05/17 10:31:28;;;;;;;10.65;3.83;;;14.80;99.90;;;;;;5062470;28;20043;-67
2023/05/17 10:33:54;;;;;;;11.35;3.72;;;14.60;99.90;;;;;;5051372;28;20078;-67
2023/05/17 10:36:22;;;;;;;10.27;4.13;;;14.70;99.90;;;;;;5051650;28;20049;-71
2023/05/17 10:38:48;;;;;;;12.52;3.95;;;14.60;99.90;;;;;;5070736;28;20373;-68
2023/05/17 10:41:16;;;;;;;12.65;4.50;;;14.80;99.90;;;;;;5072006;28;20020;-68
2023/05/17 10:43:44;;;;;;;10.57;3.70;;;15.10;99.90;;;;;;5071792;28;20476;-72
2023/05/17 10:46:21;;;;;;;7.63;3.22;;;15.20;99.90;;;;;;5071167;28;20064;-67
2023/05/17 10:48:50;;;;;;;7.47;3.20;;;14.90;99.90;;;;;;5051508;28;20098;-71
2023/05/17 10:51:23;;;;;;;10.87;3.33;;;14.60;99.90;;;;;;5062631;28;20059;-69
2023/05/17 10:54:17;;;;;;;12.13;3.28;;;14.40;99.90;;;;;;5069670;28;20031;-68
2023/05/17 10:56:53;;;;;;;13.23;3.50;;;14.50;99.90;;;;;;5071995;28;20424;-71
2023/05/17 10:59:28;;;;;;;9.73;3.80;;;14.60;99.90;;;;;;5071672;28;20039;-68
2023/05/17 11:01:59;;;;;;;10.63;4.05;;;14.80;99.90;;;;;;5057087;28;20052;-68
2023/05/17 11:04:38;;;;;;;13.10;4.10;;;15.10;99.90;;;;;;5051579;28;20023;-66
2023/05/17 11:07:17;;;;;;;12.65;4.07;;;15.20;99.90;;;;;;5050643;28;20660;-68
2023/05/17 11:09:44;;;;;;;11.95;3.75;;;15.20;99.90;;;;;;5050095;28;20025;-68
2023/05/17 11:12:14;;;;;;;9.63;3.80;;;15.50;99.90;;;;;;5068494;28;20036;-68
2023/05/17 11:14:46;;;;;;;9.68;3.42;;;15.90;99.90;;;;;;5071453;28;20083;-68
2023/05/17 11:17:27;;;;;;;16.42;3.80;;;15.90;99.90;;;;;;5071056;28;20029;-68
2023/05/17 11:20:02;;;;;;;7.85;3.35;;;15.90;99.90;;;;;;5070540;28;20043;-68
2023/05/17 11:22:35;;;;;;;9.93;3.38;;;16.00;99.90;;;;;;5051412;28;20082;-68
2023/05/17 11:25:06;;;;;;;11.60;3.42;;;15.90;99.90;;;;;;5048339;28;20033;-70
2023/05/17 11:27:37;;;;;;;9.52;3.90;;;16.00;99.90;;;;;;5049946;28;20579;-68
2023/05/17 11:30:09;;;;;;;9.68;3.28;;;15.70;99.90;;;;;;5049744;28;20432;-70
2023/05/17 11:32:35;;;;;;;10.68;3.58;;;15.30;99.90;;;;;;5069404;28;20032;-68
2023/05/17 11:35:01;;;;;;;7.72;3.60;;;15.40;99.90;;;;;;5070310;28;20039;-69
2023/05/17 11:37:28;;;;;;;9.18;3.50;;;15.30;99.90;;;;;;5071175;28;20131;-68
2023/05/17 11:40:06;;;;;;;10.75;3.25;;;15.10;99.90;;;;;;5070206;28;20376;-68
2023/05/17 11:42:34;;;;;;;8.73;3.42;;;15.00;99.90;;;;;;5070605;28;20039;-69
2023/05/17 11:45:01;;;;;;;8.73;3.25;;;15.20;99.90;;;;;;5070000;28;20074;-68
2023/05/17 11:47:27;;;;;;;10.18;3.33;;;15.20;99.90;;;;;;5069227;28;20029;-70
2023/05/17 11:49:54;;;;;;;10.65;3.85;;;15.20;99.90;;;;;;5068685;28;20093;-68
2023/05/17 11:52:21;;;;;;;9.70;3.25;;;15.40;99.90;;;;;;5069312;28;20070;-69
2023/05/17 11:54:48;;;;;;;7.47;3.08;;;16.10;99.90;;;;;;5070499;28;20039;-72
2023/05/17 11:57:16;;;;;;;9.63;3.47;;;16.70;99.90;;;;;;5068069;28;20028;-68
2023/05/17 11:59:42;;;;;;;7.45;3.35;;;16.80;99.90;;;;;;5070525;28;20063;-68
2023/05/17 12:02:09;;;;;;;11.13;3.55;;;16.50;99.90;;;;;;5054749;28;20053;-68
2023/05/17 12:04:36;;;;;;;9.75;3.67;;;16.30;99.90;;;;;;5053689;28;20033;-68
2023/05/17 12:07:03;;;;;;;11.85;3.35;;;15.90;99.90;;;;;;5067728;28;20043;-69
2023/05/17 12:09:28;;;;;;;9.45;3.22;;;15.60;99.90;;;;;;5067424;28;20576;-68
2023/05/17 12:11:55;;;;;;;11.35;3.67;;;15.40;99.90;;;;;;5067191;28;20027;-68
2023/05/17 12:14:21;;;;;;;8.15;3.80;;;15.20;99.90;;;;;;5069314;28;20094;-69
2023/05/17 12:16:51;;;;;;;11.18;3.92;;;15.20;99.90;;;;;;5070197;28;20033;-68
2023/05/17 12:19:21;;;;;;;8.90;3.35;;;15.20;99.90;;;;;;5070776;28;20021;-69
2023/05/17 12:21:48;;;;;;;9.95;3.63;;;15.00;99.90;;;;;;5068970;28;20036;-68
2023/05/17 12:24:13;;;;;;;7.18;3.53;;;15.10;99.90;;;;;;5067872;28;20020;-68
2023/05/17 12:26:46;;;;;;;13.30;3.53;;;15.40;99.90;;;;;;5070101;28;20086;-68
2023/05/17 12:29:16;;;;;;;7.93;3.63;;;15.50;99.90;;;;;;5068990;28;20387;-68
2023/05/17 12:31:51;;;;;;;9.90;3.28;;;15.50;99.90;;;;;;5060848;28;20033;-68
2023/05/17 12:34:17;;;;;;;11.18;3.33;;;15.50;99.90;;;;;;5069571;28;20105;-69
2023/05/17 12:36:43;;;;;;;6.65;3.08;;;15.40;99.90;;;;;;5068861;28;20056;-68
2023/05/17 12:39:11;;;;;;;14.02;3.40;;;15.50;99.90;;;;;;5069085;28;20082;-68
2023/05/17 12:41:38;;;;;;;10.05;3.70;;;15.40;99.90;;;;;;5068311;28;20111;-68
2023/05/17 12:44:07;;;;;;;7.63;3.55;;;15.20;99.90;;;;;;5068915;28;20089;-70
2023/05/17 12:46:34;;;;;;;9.30;3.70;;;15.30;99.90;;;;;;5068094;28;20473;-68
2023/05/17 12:49:07;;;;;;;11.00;3.45;;;15.30;99.90;;;;;;5067366;28;20103;-68
2023/05/17 12:51:46;;;;;;;12.52;4.35;;;15.20;99.90;;;;;;5068302;28;20020;-69
2023/05/17 12:54:28;;;;;;;9.45;3.67;;;15.40;99.90;;;;;;5068742;28;20034;-70